sensor_id;sensor_type;location;lat;lon;timestamp;temperature;humidity
56478;DHT22;42382;53.210;5.772;2022-08-23T00:01:32;19.30;76.80
56478;DHT22;42382;53.210;5.772;2022-08-23T00:04:03;19.30;76.90
56478;DHT22;42382;53.210;5.772;2022-08-23T00:06:30;19.30;76.90
56478;DHT22;42382;53.210;5.772;2022-08-23T00:08:57;19.30;76.90
56478;DHT22;42382;53.210;5.772;2022-08-23T00:11:31;19.20;77.10
56478;DHT22;42382;53.210;5.772;2022-08-23T00:14:00;19.20;77.20
56478;DHT22;42382;53.210;5.772;2022-08-23T00:16:27;19.20;77.30
56478;DHT22;42382;53.210;5.772;2022-08-23T00:18:53;19.20;77.30
56478;DHT22;42382;53.210;5.772;2022-08-23T00:21:18;19.20;77.40
56478;DHT22;42382;53.210;5.772;2022-08-23T00:23:44;19.20;77.50
56478;DHT22;42382;53.210;5.772;2022-08-23T00:26:10;19.20;77.60
56478;DHT22;42382;53.210;5.772;2022-08-23T00:28:36;19.20;77.70
56478;DHT22;42382;53.210;5.772;2022-08-23T00:31:02;19.10;77.70
56478;DHT22;42382;53.210;5.772;2022-08-23T00:33:28;19.20;77.80
56478;DHT22;42382;53.210;5.772;2022-08-23T00:35:53;19.20;77.90
56478;DHT22;42382;53.210;5.772;2022-08-23T00:38:19;19.10;78.00
56478;DHT22;42382;53.210;5.772;2022-08-23T00:40:47;19.10;78.00
56478;DHT22;42382;53.210;5.772;2022-08-23T00:43:17;19.20;78.00
56478;DHT22;42382;53.210;5.772;2022-08-23T00:46:29;19.10;78.10
56478;DHT22;42382;53.210;5.772;2022-08-23T00:49:17;19.20;77.90
56478;DHT22;42382;53.210;5.772;2022-08-23T00:52:00;19.10;78.20
56478;DHT22;42382;53.210;5.772;2022-08-23T00:54:28;19.10;78.30
56478;DHT22;42382;53.210;5.772;2022-08-23T00:56:57;19.10;78.30
56478;DHT22;42382;53.210;5.772;2022-08-23T00:59:23;19.10;78.50
56478;DHT22;42382;53.210;5.772;2022-08-23T01:01:49;19.10;78.50
56478;DHT22;42382;53.210;5.772;2022-08-23T01:04:15;19.10;78.60
56478;DHT22;42382;53.210;5.772;2022-08-23T01:06:49;19.10;78.60
56478;DHT22;42382;53.210;5.772;2022-08-23T01:09:19;19.00;78.50
56478;DHT22;42382;53.210;5.772;2022-08-23T01:12:11;19.00;78.60
56478;DHT22;42382;53.210;5.772;2022-08-23T01:14:47;19.00;78.50
56478;DHT22;42382;53.210;5.772;2022-08-23T01:17:21;18.90;78.70
56478;DHT22;42382;53.210;5.772;2022-08-23T01:19:56;18.90;78.70
56478;DHT22;42382;53.210;5.772;2022-08-23T01:24:55;18.90;78.90
56478;DHT22;42382;53.210;5.772;2022-08-23T01:27:21;18.80;79.10
56478;DHT22;42382;53.210;5.772;2022-08-23T01:29:47;18.80;79.30
56478;DHT22;42382;53.210;5.772;2022-08-23T01:32:12;18.80;79.40
56478;DHT22;42382;53.210;5.772;2022-08-23T01:34:38;18.80;79.50
56478;DHT22;42382;53.210;5.772;2022-08-23T01:37:06;18.80;79.50
56478;DHT22;42382;53.210;5.772;2022-08-23T01:39:33;18.80;79.60
56478;DHT22;42382;53.210;5.772;2022-08-23T01:41:59;18.70;79.60
56478;DHT22;42382;53.210;5.772;2022-08-23T01:44:24;18.80;79.80
56478;DHT22;42382;53.210;5.772;2022-08-23T01:46:51;18.70;79.70
56478;DHT22;42382;53.210;5.772;2022-08-23T01:49:17;18.70;79.90
56478;DHT22;42382;53.210;5.772;2022-08-23T01:51:43;18.70;79.90
56478;DHT22;42382;53.210;5.772;2022-08-23T01:54:08;18.70;80.00
56478;DHT22;42382;53.210;5.772;2022-08-23T01:56:35;18.70;80.20
56478;DHT22;42382;53.210;5.772;2022-08-23T01:59:01;18.70;80.20
56478;DHT22;42382;53.210;5.772;2022-08-23T02:01:26;18.60;80.20
56478;DHT22;42382;53.210;5.772;2022-08-23T02:03:52;18.70;80.30
56478;DHT22;42382;53.210;5.772;2022-08-23T02:06:17;18.60;80.30
56478;DHT22;42382;53.210;5.772;2022-08-23T02:08:44;18.70;80.30
56478;DHT22;42382;53.210;5.772;2022-08-23T02:11:33;18.60;80.50
56478;DHT22;42382;53.210;5.772;2022-08-23T02:14:02;18.60;80.50
56478;DHT22;42382;53.210;5.772;2022-08-23T02:16:34;18.60;80.50
56478;DHT22;42382;53.210;5.772;2022-08-23T02:19:03;18.60;80.60
56478;DHT22;42382;53.210;5.772;2022-08-23T02:21:30;18.60;80.60
56478;DHT22;42382;53.210;5.772;2022-08-23T02:23:57;18.60;80.70
56478;DHT22;42382;53.210;5.772;2022-08-23T02:26:23;18.50;80.80
56478;DHT22;42382;53.210;5.772;2022-08-23T02:28:51;18.50;80.80
56478;DHT22;42382;53.210;5.772;2022-08-23T02:31:17;18.50;80.90
56478;DHT22;42382;53.210;5.772;2022-08-23T02:33:42;18.50;80.90
56478;DHT22;42382;53.210;5.772;2022-08-23T02:36:08;18.50;80.90
56478;DHT22;42382;53.210;5.772;2022-08-23T02:38:34;18.50;80.90
56478;DHT22;42382;53.210;5.772;2022-08-23T02:40:59;18.50;81.00
56478;DHT22;42382;53.210;5.772;2022-08-23T02:43:26;18.50;81.10
56478;DHT22;42382;53.210;5.772;2022-08-23T02:45:51;18.50;81.20
56478;DHT22;42382;53.210;5.772;2022-08-23T02:48:17;18.50;81.20
56478;DHT22;42382;53.210;5.772;2022-08-23T02:50:43;18.50;81.30
56478;DHT22;42382;53.210;5.772;2022-08-23T02:53:08;18.50;81.20
56478;DHT22;42382;53.210;5.772;2022-08-23T02:55:34;18.50;81.20
56478;DHT22;42382;53.210;5.772;2022-08-23T02:57:59;18.50;81.30
56478;DHT22;42382;53.210;5.772;2022-08-23T03:00:25;18.50;81.30
56478;DHT22;42382;53.210;5.772;2022-08-23T03:02:51;18.60;81.30
56478;DHT22;42382;53.210;5.772;2022-08-23T03:05:17;18.50;81.30
56478;DHT22;42382;53.210;5.772;2022-08-23T03:07:43;18.60;81.40
56478;DHT22;42382;53.210;5.772;2022-08-23T03:10:09;18.50;81.40
56478;DHT22;42382;53.210;5.772;2022-08-23T03:12:35;18.50;81.50
56478;DHT22;42382;53.210;5.772;2022-08-23T03:15:02;18.60;81.50
56478;DHT22;42382;53.210;5.772;2022-08-23T03:17:27;18.50;81.50
56478;DHT22;42382;53.210;5.772;2022-08-23T03:19:53;18.50;81.40
56478;DHT22;42382;53.210;5.772;2022-08-23T03:22:19;18.50;81.40
56478;DHT22;42382;53.210;5.772;2022-08-23T03:24:47;18.50;81.40
56478;DHT22;42382;53.210;5.772;2022-08-23T03:27:13;18.50;81.40
56478;DHT22;42382;53.210;5.772;2022-08-23T03:29:39;18.50;81.40
56478;DHT22;42382;53.210;5.772;2022-08-23T03:32:05;18.50;81.40
56478;DHT22;42382;53.210;5.772;2022-08-23T03:34:32;18.50;81.40
56478;DHT22;42382;53.210;5.772;2022-08-23T03:36:57;18.50;81.30
56478;DHT22;42382;53.210;5.772;2022-08-23T03:39:23;18.50;81.30
56478;DHT22;42382;53.210;5.772;2022-08-23T03:41:49;18.50;81.40
56478;DHT22;42382;53.210;5.772;2022-08-23T03:44:15;18.40;81.40
56478;DHT22;42382;53.210;5.772;2022-08-23T03:46:41;18.40;81.40
56478;DHT22;42382;53.210;5.772;2022-08-23T03:49:06;18.40;81.50
56478;DHT22;42382;53.210;5.772;2022-08-23T03:51:33;18.40;81.50
56478;DHT22;42382;53.210;5.772;2022-08-23T03:53:59;18.40;81.50
56478;DHT22;42382;53.210;5.772;2022-08-23T03:56:34;18.30;81.50
56478;DHT22;42382;53.210;5.772;2022-08-23T03:59:04;18.30;81.50
56478;DHT22;42382;53.210;5.772;2022-08-23T04:01:30;18.30;81.60
56478;DHT22;42382;53.210;5.772;2022-08-23T04:03:55;18.30;81.70
56478;DHT22;42382;53.210;5.772;2022-08-23T04:06:25;18.20;81.70
56478;DHT22;42382;53.210;5.772;2022-08-23T04:08:51;18.20;81.70
56478;DHT22;42382;53.210;5.772;2022-08-23T04:11:19;18.30;81.80
56478;DHT22;42382;53.210;5.772;2022-08-23T04:13:45;18.20;81.90
56478;DHT22;42382;53.210;5.772;2022-08-23T04:16:11;18.20;81.90
56478;DHT22;42382;53.210;5.772;2022-08-23T04:18:38;18.20;81.90
56478;DHT22;42382;53.210;5.772;2022-08-23T04:21:09;18.10;81.90
56478;DHT22;42382;53.210;5.772;2022-08-23T04:23:37;18.20;82.00
56478;DHT22;42382;53.210;5.772;2022-08-23T04:26:04;18.10;82.00
56478;DHT22;42382;53.210;5.772;2022-08-23T04:28:31;18.10;82.10
56478;DHT22;42382;53.210;5.772;2022-08-23T04:30:57;18.10;82.10
56478;DHT22;42382;53.210;5.772;2022-08-23T04:33:27;18.00;82.10
56478;DHT22;42382;53.210;5.772;2022-08-23T04:35:53;18.00;82.20
56478;DHT22;42382;53.210;5.772;2022-08-23T04:38:18;18.10;82.30
56478;DHT22;42382;53.210;5.772;2022-08-23T04:40:44;18.10;82.30
56478;DHT22;42382;53.210;5.772;2022-08-23T04:43:28;18.00;82.30
56478;DHT22;42382;53.210;5.772;2022-08-23T04:45:54;18.00;82.20
56478;DHT22;42382;53.210;5.772;2022-08-23T04:48:20;18.00;82.40
56478;DHT22;42382;53.210;5.772;2022-08-23T04:50:48;18.00;82.40
56478;DHT22;42382;53.210;5.772;2022-08-23T04:53:14;18.00;82.40
56478;DHT22;42382;53.210;5.772;2022-08-23T04:55:39;18.00;82.50
56478;DHT22;42382;53.210;5.772;2022-08-23T04:58:05;18.00;82.40
56478;DHT22;42382;53.210;5.772;2022-08-23T05:00:31;18.00;82.50
56478;DHT22;42382;53.210;5.772;2022-08-23T05:02:57;18.00;82.50
56478;DHT22;42382;53.210;5.772;2022-08-23T05:05:22;18.00;82.50
56478;DHT22;42382;53.210;5.772;2022-08-23T05:07:48;18.10;82.50
56478;DHT22;42382;53.210;5.772;2022-08-23T05:10:15;18.10;82.50
56478;DHT22;42382;53.210;5.772;2022-08-23T05:12:43;18.10;82.40
56478;DHT22;42382;53.210;5.772;2022-08-23T05:15:09;18.10;82.50
56478;DHT22;42382;53.210;5.772;2022-08-23T05:17:35;18.10;82.40
56478;DHT22;42382;53.210;5.772;2022-08-23T05:20:02;18.10;82.40
56478;DHT22;42382;53.210;5.772;2022-08-23T05:22:27;18.10;82.50
56478;DHT22;42382;53.210;5.772;2022-08-23T05:24:56;18.20;82.60
56478;DHT22;42382;53.210;5.772;2022-08-23T05:27:22;18.30;82.70
56478;DHT22;42382;53.210;5.772;2022-08-23T05:29:47;18.30;82.50
56478;DHT22;42382;53.210;5.772;2022-08-23T05:32:14;18.40;82.60
56478;DHT22;42382;53.210;5.772;2022-08-23T05:34:39;18.40;82.50
56478;DHT22;42382;53.210;5.772;2022-08-23T05:37:05;18.50;82.50
56478;DHT22;42382;53.210;5.772;2022-08-23T05:39:30;18.60;82.50
56478;DHT22;42382;53.210;5.772;2022-08-23T05:41:56;18.70;82.40
56478;DHT22;42382;53.210;5.772;2022-08-23T05:44:22;18.70;82.30
56478;DHT22;42382;53.210;5.772;2022-08-23T05:46:47;18.80;82.10
56478;DHT22;42382;53.210;5.772;2022-08-23T05:49:13;18.80;81.80
56478;DHT22;42382;53.210;5.772;2022-08-23T05:51:39;18.90;81.50
56478;DHT22;42382;53.210;5.772;2022-08-23T05:54:07;18.90;81.30
56478;DHT22;42382;53.210;5.772;2022-08-23T05:56:35;18.90;81.20
56478;DHT22;42382;53.210;5.772;2022-08-23T05:59:07;19.00;81.00
56478;DHT22;42382;53.210;5.772;2022-08-23T06:01:34;19.00;80.80
56478;DHT22;42382;53.210;5.772;2022-08-23T06:04:03;19.00;80.60
56478;DHT22;42382;53.210;5.772;2022-08-23T06:06:28;19.10;80.50
56478;DHT22;42382;53.210;5.772;2022-08-23T06:08:55;19.10;80.20
56478;DHT22;42382;53.210;5.772;2022-08-23T06:11:23;19.10;79.40
56478;DHT22;42382;53.210;5.772;2022-08-23T06:13:51;19.10;78.90
56478;DHT22;42382;53.210;5.772;2022-08-23T06:16:24;19.20;78.60
56478;DHT22;42382;53.210;5.772;2022-08-23T06:18:50;19.20;78.40
56478;DHT22;42382;53.210;5.772;2022-08-23T06:21:16;19.30;78.20
56478;DHT22;42382;53.210;5.772;2022-08-23T06:23:44;19.30;77.70
56478;DHT22;42382;53.210;5.772;2022-08-23T06:26:17;19.30;77.00
56478;DHT22;42382;53.210;5.772;2022-08-23T06:28:48;19.30;76.70
56478;DHT22;42382;53.210;5.772;2022-08-23T06:31:14;19.40;76.40
56478;DHT22;42382;53.210;5.772;2022-08-23T06:33:41;19.40;76.40
56478;DHT22;42382;53.210;5.772;2022-08-23T06:36:10;19.40;76.20
56478;DHT22;42382;53.210;5.772;2022-08-23T06:38:38;19.50;76.20
56478;DHT22;42382;53.210;5.772;2022-08-23T06:41:07;19.50;76.20
56478;DHT22;42382;53.210;5.772;2022-08-23T06:43:34;19.50;75.90
56478;DHT22;42382;53.210;5.772;2022-08-23T06:46:14;19.60;76.00
56478;DHT22;42382;53.210;5.772;2022-08-23T06:48:42;19.60;76.10
56478;DHT22;42382;53.210;5.772;2022-08-23T06:51:12;19.60;76.00
56478;DHT22;42382;53.210;5.772;2022-08-23T06:53:39;19.80;75.80
56478;DHT22;42382;53.210;5.772;2022-08-23T06:56:05;19.80;76.00
56478;DHT22;42382;53.210;5.772;2022-08-23T06:58:31;19.90;75.80
56478;DHT22;42382;53.210;5.772;2022-08-23T07:01:08;20.00;75.70
56478;DHT22;42382;53.210;5.772;2022-08-23T07:03:34;20.10;75.50
56478;DHT22;42382;53.210;5.772;2022-08-23T07:06:00;20.30;75.80
56478;DHT22;42382;53.210;5.772;2022-08-23T07:08:26;20.40;75.60
56478;DHT22;42382;53.210;5.772;2022-08-23T07:10:55;20.50;75.40
56478;DHT22;42382;53.210;5.772;2022-08-23T07:13:20;20.70;74.80
56478;DHT22;42382;53.210;5.772;2022-08-23T07:15:47;20.80;74.50
56478;DHT22;42382;53.210;5.772;2022-08-23T07:18:12;20.90;74.50
56478;DHT22;42382;53.210;5.772;2022-08-23T07:20:38;21.00;73.80
56478;DHT22;42382;53.210;5.772;2022-08-23T07:23:04;21.10;73.40
56478;DHT22;42382;53.210;5.772;2022-08-23T07:25:30;21.20;73.20
56478;DHT22;42382;53.210;5.772;2022-08-23T07:27:56;21.30;73.00
56478;DHT22;42382;53.210;5.772;2022-08-23T07:30:22;21.20;72.20
56478;DHT22;42382;53.210;5.772;2022-08-23T07:32:48;21.30;71.60
56478;DHT22;42382;53.210;5.772;2022-08-23T07:35:14;21.30;71.00
56478;DHT22;42382;53.210;5.772;2022-08-23T07:37:39;21.30;70.60
56478;DHT22;42382;53.210;5.772;2022-08-23T07:40:07;21.30;70.40
56478;DHT22;42382;53.210;5.772;2022-08-23T07:42:33;21.40;70.10
56478;DHT22;42382;53.210;5.772;2022-08-23T07:44:58;21.40;70.20
56478;DHT22;42382;53.210;5.772;2022-08-23T07:47:24;21.40;70.40
56478;DHT22;42382;53.210;5.772;2022-08-23T07:49:49;21.60;70.30
56478;DHT22;42382;53.210;5.772;2022-08-23T07:52:15;22.00;69.70
56478;DHT22;42382;53.210;5.772;2022-08-23T07:54:41;23.00;68.60
56478;DHT22;42382;53.210;5.772;2022-08-23T07:57:06;23.90;65.70
56478;DHT22;42382;53.210;5.772;2022-08-23T07:59:32;24.80;63.10
56478;DHT22;42382;53.210;5.772;2022-08-23T08:01:58;25.50;60.70
56478;DHT22;42382;53.210;5.772;2022-08-23T08:04:24;26.10;59.20
56478;DHT22;42382;53.210;5.772;2022-08-23T08:06:49;26.70;58.00
56478;DHT22;42382;53.210;5.772;2022-08-23T08:09:16;27.30;56.60
56478;DHT22;42382;53.210;5.772;2022-08-23T08:11:45;27.80;55.40
56478;DHT22;42382;53.210;5.772;2022-08-23T08:14:12;28.30;53.70
56478;DHT22;42382;53.210;5.772;2022-08-23T08:16:41;28.60;52.60
56478;DHT22;42382;53.210;5.772;2022-08-23T08:19:09;28.90;51.80
56478;DHT22;42382;53.210;5.772;2022-08-23T08:21:35;29.40;51.30
56478;DHT22;42382;53.210;5.772;2022-08-23T08:24:01;30.00;50.20
56478;DHT22;42382;53.210;5.772;2022-08-23T08:26:27;30.30;49.20
56478;DHT22;42382;53.210;5.772;2022-08-23T08:28:53;30.50;48.30
56478;DHT22;42382;53.210;5.772;2022-08-23T08:31:21;30.70;47.30
56478;DHT22;42382;53.210;5.772;2022-08-23T08:33:47;31.10;45.60
56478;DHT22;42382;53.210;5.772;2022-08-23T08:36:32;31.30;45.10
56478;DHT22;42382;53.210;5.772;2022-08-23T08:39:00;31.30;43.00
56478;DHT22;42382;53.210;5.772;2022-08-23T08:46:47;29.70;47.10
56478;DHT22;42382;53.210;5.772;2022-08-23T08:49:29;29.30;47.50
56478;DHT22;42382;53.210;5.772;2022-08-23T08:52:21;29.20;48.00
56478;DHT22;42382;53.210;5.772;2022-08-23T08:54:49;29.10;48.60
56478;DHT22;42382;53.210;5.772;2022-08-23T08:57:19;29.10;48.50
56478;DHT22;42382;53.210;5.772;2022-08-23T08:59:59;29.30;48.30
56478;DHT22;42382;53.210;5.772;2022-08-23T09:02:30;29.70;48.00
56478;DHT22;42382;53.210;5.772;2022-08-23T09:04:57;30.00;47.00
56478;DHT22;42382;53.210;5.772;2022-08-23T09:07:33;30.20;46.60
56478;DHT22;42382;53.210;5.772;2022-08-23T09:12:49;29.90;46.60
56478;DHT22;42382;53.210;5.772;2022-08-23T09:15:51;29.80;48.00
56478;DHT22;42382;53.210;5.772;2022-08-23T09:18:21;29.80;48.10
56478;DHT22;42382;53.210;5.772;2022-08-23T09:20:51;30.00;48.00
56478;DHT22;42382;53.210;5.772;2022-08-23T09:23:42;30.20;46.70
56478;DHT22;42382;53.210;5.772;2022-08-23T09:26:34;30.10;45.40
56478;DHT22;42382;53.210;5.772;2022-08-23T09:29:23;29.90;46.40
56478;DHT22;42382;53.210;5.772;2022-08-23T09:31:53;29.60;46.90
56478;DHT22;42382;53.210;5.772;2022-08-23T09:37:20;29.40;45.90
56478;DHT22;42382;53.210;5.772;2022-08-23T09:40:24;29.60;45.80
56478;DHT22;42382;53.210;5.772;2022-08-23T09:45:40;29.60;45.50
56478;DHT22;42382;53.210;5.772;2022-08-23T09:48:48;29.80;46.40
56478;DHT22;42382;53.210;5.772;2022-08-23T09:56:42;30.70;43.60
56478;DHT22;42382;53.210;5.772;2022-08-23T10:01:57;30.90;43.40
56478;DHT22;42382;53.210;5.772;2022-08-23T10:04:40;31.10;42.20
56478;DHT22;42382;53.210;5.772;2022-08-23T10:09:49;30.90;41.30
56478;DHT22;42382;53.210;5.772;2022-08-23T10:12:15;31.00;42.20
56478;DHT22;42382;53.210;5.772;2022-08-23T10:14:41;31.00;42.30
56478;DHT22;42382;53.210;5.772;2022-08-23T10:22:40;31.60;40.30
56478;DHT22;42382;53.210;5.772;2022-08-23T10:25:10;31.70;41.10
56478;DHT22;42382;53.210;5.772;2022-08-23T10:27:48;31.60;41.30
56478;DHT22;42382;53.210;5.772;2022-08-23T10:30:43;31.50;41.50
56478;DHT22;42382;53.210;5.772;2022-08-23T10:33:48;31.40;41.00
56478;DHT22;42382;53.210;5.772;2022-08-23T10:36:33;31.40;40.10
56478;DHT22;42382;53.210;5.772;2022-08-23T10:39:07;31.70;39.60
56478;DHT22;42382;53.210;5.772;2022-08-23T10:44:32;32.00;40.30
56478;DHT22;42382;53.210;5.772;2022-08-23T10:47:36;32.40;37.90
56478;DHT22;42382;53.210;5.772;2022-08-23T10:50:07;32.30;39.00
56478;DHT22;42382;53.210;5.772;2022-08-23T10:52:36;32.50;38.60
56478;DHT22;42382;53.210;5.772;2022-08-23T10:55:12;32.60;38.50
56478;DHT22;42382;53.210;5.772;2022-08-23T10:57:51;32.80;38.80
56478;DHT22;42382;53.210;5.772;2022-08-23T11:00:24;32.80;38.60
56478;DHT22;42382;53.210;5.772;2022-08-23T11:05:28;32.90;38.90
56478;DHT22;42382;53.210;5.772;2022-08-23T11:08:04;33.20;37.90
56478;DHT22;42382;53.210;5.772;2022-08-23T11:18:07;32.90;38.50
56478;DHT22;42382;53.210;5.772;2022-08-23T11:23:16;32.80;39.00
56478;DHT22;42382;53.210;5.772;2022-08-23T11:25:44;32.80;38.90
56478;DHT22;42382;53.210;5.772;2022-08-23T11:31:36;32.80;38.40
56478;DHT22;42382;53.210;5.772;2022-08-23T11:33:49;32.60;37.40
56478;DHT22;42382;53.210;5.772;2022-08-23T11:36:24;32.50;36.80
56478;DHT22;42382;53.210;5.772;2022-08-23T11:43:46;32.70;37.00
56478;DHT22;42382;53.210;5.772;2022-08-23T11:49:11;32.60;37.10
56478;DHT22;42382;53.210;5.772;2022-08-23T11:51:43;32.50;37.80
56478;DHT22;42382;53.210;5.772;2022-08-23T11:54:30;32.40;38.30
56478;DHT22;42382;53.210;5.772;2022-08-23T11:57:25;32.30;39.00
56478;DHT22;42382;53.210;5.772;2022-08-23T12:19:01;31.80;38.30
56478;DHT22;42382;53.210;5.772;2022-08-23T12:21:41;31.60;38.10
56478;DHT22;42382;53.210;5.772;2022-08-23T12:24:31;31.60;39.10
56478;DHT22;42382;53.210;5.772;2022-08-23T12:29:57;31.60;39.80
56478;DHT22;42382;53.210;5.772;2022-08-23T12:35:21;31.40;39.80
56478;DHT22;42382;53.210;5.772;2022-08-23T12:38:23;31.30;40.60
56478;DHT22;42382;53.210;5.772;2022-08-23T12:40:53;31.40;41.00
56478;DHT22;42382;53.210;5.772;2022-08-23T12:43:28;31.40;41.60
56478;DHT22;42382;53.210;5.772;2022-08-23T12:45:56;31.40;40.70
56478;DHT22;42382;53.210;5.772;2022-08-23T12:48:31;31.40;40.00
56478;DHT22;42382;53.210;5.772;2022-08-23T12:51:02;31.40;40.40
56478;DHT22;42382;53.210;5.772;2022-08-23T12:53:31;31.40;40.20
56478;DHT22;42382;53.210;5.772;2022-08-23T12:56:06;31.30;39.90
56478;DHT22;42382;53.210;5.772;2022-08-23T12:58:34;31.10;40.80
56478;DHT22;42382;53.210;5.772;2022-08-23T13:01:07;31.00;41.70
56478;DHT22;42382;53.210;5.772;2022-08-23T13:03:43;31.00;41.80
56478;DHT22;42382;53.210;5.772;2022-08-23T13:06:13;31.00;42.10
56478;DHT22;42382;53.210;5.772;2022-08-23T13:09:04;30.90;43.00
56478;DHT22;42382;53.210;5.772;2022-08-23T13:11:33;31.10;42.50
56478;DHT22;42382;53.210;5.772;2022-08-23T13:13:59;31.20;42.50
56478;DHT22;42382;53.210;5.772;2022-08-23T13:16:43;31.40;42.30
56478;DHT22;42382;53.210;5.772;2022-08-23T13:19:16;31.50;41.90
56478;DHT22;42382;53.210;5.772;2022-08-23T13:21:41;31.50;41.90
56478;DHT22;42382;53.210;5.772;2022-08-23T13:24:33;31.60;41.50
56478;DHT22;42382;53.210;5.772;2022-08-23T13:30:17;31.30;41.20
56478;DHT22;42382;53.210;5.772;2022-08-23T13:32:52;31.30;41.50
56478;DHT22;42382;53.210;5.772;2022-08-23T13:35:39;31.10;42.20
56478;DHT22;42382;53.210;5.772;2022-08-23T13:46:00;31.20;40.60
56478;DHT22;42382;53.210;5.772;2022-08-23T13:48:33;31.20;41.20
56478;DHT22;42382;53.210;5.772;2022-08-23T13:53:42;31.20;41.70
56478;DHT22;42382;53.210;5.772;2022-08-23T13:56:08;31.10;42.60
56478;DHT22;42382;53.210;5.772;2022-08-23T13:58:34;31.20;41.90
56478;DHT22;42382;53.210;5.772;2022-08-23T14:01:01;31.20;42.30
56478;DHT22;42382;53.210;5.772;2022-08-23T14:03:28;31.30;42.10
56478;DHT22;42382;53.210;5.772;2022-08-23T14:05:55;31.30;41.30
56478;DHT22;42382;53.210;5.772;2022-08-23T14:08:21;31.40;41.90
56478;DHT22;42382;53.210;5.772;2022-08-23T14:10:47;31.50;39.90
56478;DHT22;42382;53.210;5.772;2022-08-23T14:13:17;31.50;41.00
56478;DHT22;42382;53.210;5.772;2022-08-23T14:15:44;31.60;40.90
56478;DHT22;42382;53.210;5.772;2022-08-23T14:18:11;31.60;40.50
56478;DHT22;42382;53.210;5.772;2022-08-23T14:20:37;31.60;40.10
56478;DHT22;42382;53.210;5.772;2022-08-23T14:23:03;31.70;39.50
56478;DHT22;42382;53.210;5.772;2022-08-23T14:25:29;31.70;39.70
56478;DHT22;42382;53.210;5.772;2022-08-23T14:27:55;31.70;39.10
56478;DHT22;42382;53.210;5.772;2022-08-23T14:30:39;31.50;39.10
56478;DHT22;42382;53.210;5.772;2022-08-23T14:33:04;31.50;39.10
56478;DHT22;42382;53.210;5.772;2022-08-23T14:35:30;31.40;38.80
56478;DHT22;42382;53.210;5.772;2022-08-23T14:37:56;31.40;38.30
56478;DHT22;42382;53.210;5.772;2022-08-23T14:40:21;31.30;38.00
56478;DHT22;42382;53.210;5.772;2022-08-23T14:42:47;31.40;37.90
56478;DHT22;42382;53.210;5.772;2022-08-23T14:45:14;31.40;38.30
56478;DHT22;42382;53.210;5.772;2022-08-23T14:47:40;31.40;38.40
56478;DHT22;42382;53.210;5.772;2022-08-23T14:50:08;31.30;37.70
56478;DHT22;42382;53.210;5.772;2022-08-23T14:52:41;31.20;37.60
56478;DHT22;42382;53.210;5.772;2022-08-23T14:55:08;31.10;38.10
56478;DHT22;42382;53.210;5.772;2022-08-23T14:57:34;31.00;39.10
56478;DHT22;42382;53.210;5.772;2022-08-23T14:59:59;31.00;44.00
56478;DHT22;42382;53.210;5.772;2022-08-23T15:02:26;31.10;46.10
56478;DHT22;42382;53.210;5.772;2022-08-23T15:04:52;31.00;47.40
56478;DHT22;42382;53.210;5.772;2022-08-23T15:07:18;30.90;48.00
56478;DHT22;42382;53.210;5.772;2022-08-23T15:09:48;30.70;48.80
56478;DHT22;42382;53.210;5.772;2022-08-23T15:12:16;30.50;49.40
56478;DHT22;42382;53.210;5.772;2022-08-23T15:14:41;30.40;49.60
56478;DHT22;42382;53.210;5.772;2022-08-23T15:17:07;30.40;50.10
56478;DHT22;42382;53.210;5.772;2022-08-23T15:19:33;30.40;50.40
56478;DHT22;42382;53.210;5.772;2022-08-23T15:21:58;30.30;50.40
56478;DHT22;42382;53.210;5.772;2022-08-23T15:24:24;30.20;50.60
56478;DHT22;42382;53.210;5.772;2022-08-23T15:26:49;30.10;50.50
56478;DHT22;42382;53.210;5.772;2022-08-23T15:29:17;30.10;50.70
56478;DHT22;42382;53.210;5.772;2022-08-23T15:31:43;30.10;50.70
56478;DHT22;42382;53.210;5.772;2022-08-23T15:34:09;30.10;50.70
56478;DHT22;42382;53.210;5.772;2022-08-23T15:36:38;29.90;50.90
56478;DHT22;42382;53.210;5.772;2022-08-23T15:39:04;30.00;51.40
56478;DHT22;42382;53.210;5.772;2022-08-23T15:41:30;30.10;51.60
56478;DHT22;42382;53.210;5.772;2022-08-23T15:43:55;30.00;51.70
56478;DHT22;42382;53.210;5.772;2022-08-23T15:46:22;30.10;51.70
56478;DHT22;42382;53.210;5.772;2022-08-23T15:49:01;30.00;51.70
56478;DHT22;42382;53.210;5.772;2022-08-23T15:51:29;29.80;52.50
56478;DHT22;42382;53.210;5.772;2022-08-23T15:53:55;29.80;52.70
56478;DHT22;42382;53.210;5.772;2022-08-23T15:56:29;29.90;52.10
56478;DHT22;42382;53.210;5.772;2022-08-23T15:58:55;29.80;52.70
56478;DHT22;42382;53.210;5.772;2022-08-23T16:01:21;29.70;52.80
56478;DHT22;42382;53.210;5.772;2022-08-23T16:03:49;29.70;53.00
56478;DHT22;42382;53.210;5.772;2022-08-23T16:06:15;29.60;53.00
56478;DHT22;42382;53.210;5.772;2022-08-23T16:08:43;29.50;53.20
56478;DHT22;42382;53.210;5.772;2022-08-23T16:11:10;29.40;53.10
56478;DHT22;42382;53.210;5.772;2022-08-23T16:13:40;29.50;53.10
56478;DHT22;42382;53.210;5.772;2022-08-23T16:16:20;29.40;53.00
56478;DHT22;42382;53.210;5.772;2022-08-23T16:18:46;29.40;52.90
56478;DHT22;42382;53.210;5.772;2022-08-23T16:21:13;29.30;53.50
56478;DHT22;42382;53.210;5.772;2022-08-23T16:23:39;29.20;53.80
56478;DHT22;42382;53.210;5.772;2022-08-23T16:26:18;29.10;53.70
56478;DHT22;42382;53.210;5.772;2022-08-23T16:28:47;29.00;53.50
56478;DHT22;42382;53.210;5.772;2022-08-23T16:31:13;28.90;54.00
56478;DHT22;42382;53.210;5.772;2022-08-23T16:33:40;28.80;54.40
56478;DHT22;42382;53.210;5.772;2022-08-23T16:36:06;28.90;54.60
56478;DHT22;42382;53.210;5.772;2022-08-23T16:38:34;28.70;54.80
56478;DHT22;42382;53.210;5.772;2022-08-23T16:40:59;28.70;55.00
56478;DHT22;42382;53.210;5.772;2022-08-23T16:43:25;28.60;54.80
56478;DHT22;42382;53.210;5.772;2022-08-23T16:45:51;28.30;55.30
56478;DHT22;42382;53.210;5.772;2022-08-23T16:48:17;28.10;56.00
56478;DHT22;42382;53.210;5.772;2022-08-23T16:50:43;28.10;56.40
56478;DHT22;42382;53.210;5.772;2022-08-23T16:53:09;28.00;56.60
56478;DHT22;42382;53.210;5.772;2022-08-23T16:55:35;28.00;56.70
56478;DHT22;42382;53.210;5.772;2022-08-23T16:58:03;27.90;57.00
56478;DHT22;42382;53.210;5.772;2022-08-23T17:00:29;27.90;57.10
56478;DHT22;42382;53.210;5.772;2022-08-23T17:02:55;27.80;57.30
56478;DHT22;42382;53.210;5.772;2022-08-23T17:05:21;27.80;57.30
56478;DHT22;42382;53.210;5.772;2022-08-23T17:07:46;27.70;57.50
56478;DHT22;42382;53.210;5.772;2022-08-23T17:10:14;27.60;57.70
56478;DHT22;42382;53.210;5.772;2022-08-23T17:12:42;27.60;57.70
56478;DHT22;42382;53.210;5.772;2022-08-23T17:15:10;27.50;58.00
56478;DHT22;42382;53.210;5.772;2022-08-23T17:17:38;27.40;58.40
56478;DHT22;42382;53.210;5.772;2022-08-23T17:20:04;27.40;58.60
56478;DHT22;42382;53.210;5.772;2022-08-23T17:22:30;27.30;58.80